sensor_id;sensor_type;location;lat;lon;timestamp;pressure;altitude;pressure_sealevel;temperature;humidity
15193;BME280;7697;51.630;7.484;2023-03-22T00:03:33;100314.44;;;12.01;89.85
15193;BME280;7697;51.630;7.484;2023-03-22T00:08:35;100326.03;;;12.07;90.27
15193;BME280;7697;51.630;7.484;2023-03-22T00:13:39;100326.84;;;12.07;90.18
15193;BME280;7697;51.630;7.484;2023-03-22T00:18:42;100321.09;;;12.10;90.23
15193;BME280;7697;51.630;7.484;2023-03-22T00:23:44;100329.66;;;12.12;90.53
15193;BME280;7697;51.630;7.484;2023-03-22T00:28:47;100324.50;;;12.17;90.56
15193;BME280;7697;51.630;7.484;2023-03-22T00:33:49;100312.28;;;12.16;90.30
15193;BME280;7697;51.630;7.484;2023-03-22T00:38:51;100306.38;;;12.14;90.37
15193;BME280;7697;51.630;7.484;2023-03-22T00:43:54;100311.63;;;12.21;90.20
15193;BME280;7697;51.630;7.484;2023-03-22T00:48:56;100311.22;;;12.24;90.32
15193;BME280;7697;51.630;7.484;2023-03-22T00:53:58;100297.72;;;12.25;90.31
15193;BME280;7697;51.630;7.484;2023-03-22T00:59:02;100304.00;;;12.31;90.35
15193;BME280;7697;51.630;7.484;2023-03-22T01:04:04;100286.44;;;12.30;90.70
15193;BME280;7697;51.630;7.484;2023-03-22T01:09:05;100275.81;;;12.30;90.51
15193;BME280;7697;51.630;7.484;2023-03-22T01:14:09;100276.41;;;12.32;90.51
15193;BME280;7697;51.630;7.484;2023-03-22T01:19:13;100266.00;;;12.30;90.73
15193;BME280;7697;51.630;7.484;2023-03-22T01:24:14;100272.34;;;12.29;90.40
15193;BME280;7697;51.630;7.484;2023-03-22T01:29:18;100263.63;;;12.22;90.67
15193;BME280;7697;51.630;7.484;2023-03-22T01:34:20;100258.53;;;12.21;90.91
15193;BME280;7697;51.630;7.484;2023-03-22T01:39:22;100252.59;;;12.25;90.71
15193;BME280;7697;51.630;7.484;2023-03-22T01:44:28;100246.28;;;12.20;90.09
15193;BME280;7697;51.630;7.484;2023-03-22T01:49:32;100235.66;;;12.20;90.43
15193;BME280;7697;51.630;7.484;2023-03-22T01:54:38;100245.41;;;12.26;90.12
15193;BME280;7697;51.630;7.484;2023-03-22T01:59:44;100236.66;;;12.25;90.76
15193;BME280;7697;51.630;7.484;2023-03-22T02:04:47;100221.38;;;12.21;90.76
15193;BME280;7697;51.630;7.484;2023-03-22T02:09:50;100214.44;;;12.20;90.03
15193;BME280;7697;51.630;7.484;2023-03-22T02:15:07;100200.34;;;12.19;90.84
15193;BME280;7697;51.630;7.484;2023-03-22T02:26:16;100187.88;;;12.20;90.83
15193;BME280;7697;51.630;7.484;2023-03-22T02:31:45;100191.56;;;12.19;90.91
15193;BME280;7697;51.630;7.484;2023-03-22T02:37:16;100181.41;;;12.16;91.08
15193;BME280;7697;51.630;7.484;2023-03-22T02:42:39;100181.81;;;12.13;91.12
15193;BME280;7697;51.630;7.484;2023-03-22T02:47:51;100177.34;;;12.13;91.42
15193;BME280;7697;51.630;7.484;2023-03-22T02:52:58;100170.19;;;12.14;91.69
15193;BME280;7697;51.630;7.484;2023-03-22T02:58:09;100150.41;;;12.10;91.48
15193;BME280;7697;51.630;7.484;2023-03-22T03:03:14;100168.78;;;12.11;91.46
15193;BME280;7697;51.630;7.484;2023-03-22T03:08:18;100166.31;;;12.10;91.58
15193;BME280;7697;51.630;7.484;2023-03-22T03:13:22;100162.84;;;12.09;91.59
15193;BME280;7697;51.630;7.484;2023-03-22T03:18:37;100153.72;;;12.05;91.35
15193;BME280;7697;51.630;7.484;2023-03-22T03:23:48;100155.56;;;12.05;91.49
15193;BME280;7697;51.630;7.484;2023-03-22T03:28:59;100146.19;;;12.02;92.15
15193;BME280;7697;51.630;7.484;2023-03-22T03:34:08;100153.13;;;12.03;92.03
15193;BME280;7697;51.630;7.484;2023-03-22T03:39:15;100143.97;;;11.99;92.04
15193;BME280;7697;51.630;7.484;2023-03-22T03:44:20;100143.63;;;11.95;91.81
15193;BME280;7697;51.630;7.484;2023-03-22T03:49:22;100135.47;;;11.90;91.88
15193;BME280;7697;51.630;7.484;2023-03-22T03:54:26;100130.69;;;11.81;92.28
15193;BME280;7697;51.630;7.484;2023-03-22T03:59:30;100127.66;;;11.77;92.44
15193;BME280;7697;51.630;7.484;2023-03-22T04:04:31;100119.34;;;11.67;92.53
15193;BME280;7697;51.630;7.484;2023-03-22T04:09:35;100125.69;;;11.66;92.75
15193;BME280;7697;51.630;7.484;2023-03-22T04:14:39;100125.75;;;11.59;92.67
15193;BME280;7697;51.630;7.484;2023-03-22T04:19:41;100122.88;;;11.61;92.77
15193;BME280;7697;51.630;7.484;2023-03-22T04:24:44;100117.38;;;11.56;93.56
15193;BME280;7697;51.630;7.484;2023-03-22T04:29:50;100111.34;;;11.49;93.25
15193;BME280;7697;51.630;7.484;2023-03-22T04:34:53;100118.88;;;11.52;93.26
15193;BME280;7697;51.630;7.484;2023-03-22T04:39:55;100117.06;;;11.46;93.58
15193;BME280;7697;51.630;7.484;2023-03-22T04:44:58;100099.97;;;11.42;93.66
15193;BME280;7697;51.630;7.484;2023-03-22T04:50:03;100117.06;;;11.46;93.83
15193;BME280;7697;51.630;7.484;2023-03-22T04:55:05;100096.13;;;11.38;93.89
15193;BME280;7697;51.630;7.484;2023-03-22T05:00:09;100096.72;;;11.40;94.49
15193;BME280;7697;51.630;7.484;2023-03-22T05:05:11;100092.50;;;11.32;94.57
15193;BME280;7697;51.630;7.484;2023-03-22T05:10:13;100097.19;;;11.30;94.19
15193;BME280;7697;51.630;7.484;2023-03-22T05:15:18;100096.38;;;11.29;94.10
15193;BME280;7697;51.630;7.484;2023-03-22T05:20:21;100103.31;;;11.31;94.22
15193;BME280;7697;51.630;7.484;2023-03-22T05:25:22;100094.56;;;11.30;94.32
15193;BME280;7697;51.630;7.484;2023-03-22T05:30:26;100101.66;;;11.36;94.25
15193;BME280;7697;51.630;7.484;2023-03-22T05:35:28;100104.88;;;11.38;94.41
15193;BME280;7697;51.630;7.484;2023-03-22T05:40:30;100097.94;;;11.44;94.33
15193;BME280;7697;51.630;7.484;2023-03-22T05:45:34;100104.78;;;11.51;94.08
15193;BME280;7697;51.630;7.484;2023-03-22T05:50:37;100104.13;;;11.56;93.72
15193;BME280;7697;51.630;7.484;2023-03-22T05:55:39;100099.03;;;11.54;94.18
15193;BME280;7697;51.630;7.484;2023-03-22T06:00:42;100107.56;;;11.63;93.94
15193;BME280;7697;51.630;7.484;2023-03-22T06:05:43;100110.78;;;11.65;93.60
15193;BME280;7697;51.630;7.484;2023-03-22T06:10:48;100098.88;;;11.74;93.54
15193;BME280;7697;51.630;7.484;2023-03-22T06:15:53;100101.13;;;11.77;93.32
15193;BME280;7697;51.630;7.484;2023-03-22T06:20:55;100091.94;;;11.73;92.96
15193;BME280;7697;51.630;7.484;2023-03-22T06:25:57;100086.16;;;11.83;93.32
15193;BME280;7697;51.630;7.484;2023-03-22T06:31:04;100088.31;;;11.92;93.02
15193;BME280;7697;51.630;7.484;2023-03-22T06:36:07;100086.84;;;11.96;93.12
15193;BME280;7697;51.630;7.484;2023-03-22T06:41:09;100085.97;;;12.02;93.09
15193;BME280;7697;51.630;7.484;2023-03-22T06:46:12;100078.16;;;12.08;92.50
15193;BME280;7697;51.630;7.484;2023-03-22T06:51:14;100070.13;;;12.14;92.11
15193;BME280;7697;51.630;7.484;2023-03-22T06:56:16;100071.88;;;12.20;92.36
15193;BME280;7697;51.630;7.484;2023-03-22T07:01:19;100075.84;;;12.29;92.16
15193;BME280;7697;51.630;7.484;2023-03-22T07:06:21;100070.09;;;12.32;92.24
15193;BME280;7697;51.630;7.484;2023-03-22T07:11:23;100080.00;;;12.44;92.16
15193;BME280;7697;51.630;7.484;2023-03-22T07:16:27;100079.31;;;12.48;91.79
15193;BME280;7697;51.630;7.484;2023-03-22T07:21:29;100069.41;;;12.55;91.75
15193;BME280;7697;51.630;7.484;2023-03-22T07:26:31;100061.00;;;12.58;91.12
15193;BME280;7697;51.630;7.484;2023-03-22T07:31:34;100057.44;;;12.64;90.79
15193;BME280;7697;51.630;7.484;2023-03-22T07:36:36;100063.56;;;12.65;90.53
15193;BME280;7697;51.630;7.484;2023-03-22T07:41:38;100060.22;;;12.69;90.60
15193;BME280;7697;51.630;7.484;2023-03-22T07:46:41;100052.81;;;12.71;90.10
15193;BME280;7697;51.630;7.484;2023-03-22T07:51:43;100054.72;;;12.83;90.17
15193;BME280;7697;51.630;7.484;2023-03-22T07:56:45;100053.16;;;13.05;89.81
15193;BME280;7697;51.630;7.484;2023-03-22T08:01:49;100047.69;;;13.41;88.69
15193;BME280;7697;51.630;7.484;2023-03-22T08:06:51;100052.75;;;13.78;87.72
15193;BME280;7697;51.630;7.484;2023-03-22T08:11:54;100045.66;;;14.07;84.11
15193;BME280;7697;51.630;7.484;2023-03-22T08:16:57;100040.41;;;14.23;83.45
15193;BME280;7697;51.630;7.484;2023-03-22T08:21:59;100035.03;;;14.35;81.63
15193;BME280;7697;51.630;7.484;2023-03-22T08:27:01;100054.06;;;14.39;79.44
15193;BME280;7697;51.630;7.484;2023-03-22T08:32:04;100038.91;;;14.16;80.82
15193;BME280;7697;51.630;7.484;2023-03-22T08:37:08;100050.59;;;14.26;80.06
15193;BME280;7697;51.630;7.484;2023-03-22T08:42:11;100043.63;;;14.25;80.09
15193;BME280;7697;51.630;7.484;2023-03-22T08:47:14;100042.38;;;14.40;79.61
15193;BME280;7697;51.630;7.484;2023-03-22T08:52:15;100046.63;;;14.41;78.77
15193;BME280;7697;51.630;7.484;2023-03-22T08:57:17;100036.13;;;14.62;78.44
15193;BME280;7697;51.630;7.484;2023-03-22T09:02:24;100048.97;;;14.94;76.35
15193;BME280;7697;51.630;7.484;2023-03-22T09:07:26;100045.63;;;15.03;75.35
15193;BME280;7697;51.630;7.484;2023-03-22T09:12:28;100043.03;;;14.92;74.57
15193;BME280;7697;51.630;7.484;2023-03-22T09:17:31;100048.84;;;14.89;74.75
15193;BME280;7697;51.630;7.484;2023-03-22T09:22:33;100038.03;;;15.12;74.46
15193;BME280;7697;51.630;7.484;2023-03-22T09:27:35;100039.66;;;15.63;73.16
15193;BME280;7697;51.630;7.484;2023-03-22T09:32:38;100039.53;;;15.92;70.13
15193;BME280;7697;51.630;7.484;2023-03-22T09:37:40;100038.69;;;15.69;70.08
15193;BME280;7697;51.630;7.484;2023-03-22T09:42:44;100033.09;;;15.93;68.59
15193;BME280;7697;51.630;7.484;2023-03-22T09:47:51;100021.75;;;16.02;67.87
15193;BME280;7697;51.630;7.484;2023-03-22T09:52:53;100034.63;;;16.27;68.71
15193;BME280;7697;51.630;7.484;2023-03-22T09:58:00;100023.44;;;16.57;66.79
15193;BME280;7697;51.630;7.484;2023-03-22T10:03:15;100026.31;;;16.50;68.66
15193;BME280;7697;51.630;7.484;2023-03-22T10:08:29;100028.94;;;16.45;68.15
15193;BME280;7697;51.630;7.484;2023-03-22T10:13:39;100032.09;;;16.42;68.70
15193;BME280;7697;51.630;7.484;2023-03-22T10:18:45;100016.56;;;16.39;68.68
15193;BME280;7697;51.630;7.484;2023-03-22T10:23:51;100017.69;;;16.43;68.69
15193;BME280;7697;51.630;7.484;2023-03-22T10:28:57;100016.31;;;16.63;68.61
15193;BME280;7697;51.630;7.484;2023-03-22T10:34:06;100027.81;;;16.63;66.77
15193;BME280;7697;51.630;7.484;2023-03-22T10:39:12;100014.97;;;16.65;64.75
15193;BME280;7697;51.630;7.484;2023-03-22T10:44:18;100014.84;;;16.77;64.19
15193;BME280;7697;51.630;7.484;2023-03-22T10:49:25;100036.03;;;17.15;63.58
15193;BME280;7697;51.630;7.484;2023-03-22T10:54:28;100038.19;;;17.18;61.94
15193;BME280;7697;51.630;7.484;2023-03-22T10:59:47;100039.72;;;17.41;62.23
15193;BME280;7697;51.630;7.484;2023-03-22T11:04:53;100021.28;;;17.50;60.76
15193;BME280;7697;51.630;7.484;2023-03-22T11:10:12;100020.22;;;17.51;60.29
15193;BME280;7697;51.630;7.484;2023-03-22T11:15:29;100029.22;;;17.35;61.27
15193;BME280;7697;51.630;7.484;2023-03-22T11:20:33;100009.34;;;17.25;62.00
15193;BME280;7697;51.630;7.484;2023-03-22T11:25:37;100017.97;;;17.33;60.92
15193;BME280;7697;51.630;7.484;2023-03-22T11:30:59;100029.16;;;17.24;61.70
15193;BME280;7697;51.630;7.484;2023-03-22T11:36:13;100014.97;;;17.24;61.67
15193;BME280;7697;51.630;7.484;2023-03-22T11:41:21;100021.44;;;16.96;62.56
15193;BME280;7697;51.630;7.484;2023-03-22T11:46:24;100005.78;;;16.83;63.12
15193;BME280;7697;51.630;7.484;2023-03-22T11:51:29;100005.88;;;16.93;64.16
15193;BME280;7697;51.630;7.484;2023-03-22T11:56:33;100011.22;;;16.93;64.26
15193;BME280;7697;51.630;7.484;2023-03-22T12:01:38;100021.44;;;16.96;64.12
15193;BME280;7697;51.630;7.484;2023-03-22T12:06:43;100015.97;;;16.59;63.99
15193;BME280;7697;51.630;7.484;2023-03-22T12:11:46;100006.44;;;16.20;65.85
15193;BME280;7697;51.630;7.484;2023-03-22T12:16:53;99985.47;;;16.06;68.54
15193;BME280;7697;51.630;7.484;2023-03-22T12:21:58;99995.31;;;16.01;68.26
15193;BME280;7697;51.630;7.484;2023-03-22T12:27:06;99985.97;;;15.82;69.54
15193;BME280;7697;51.630;7.484;2023-03-22T12:32:18;99979.13;;;15.69;70.63
15193;BME280;7697;51.630;7.484;2023-03-22T12:37:26;99970.44;;;15.57;71.71
15193;BME280;7697;51.630;7.484;2023-03-22T12:42:33;99974.28;;;15.49;72.63
15193;BME280;7697;51.630;7.484;2023-03-22T12:47:39;99969.88;;;15.55;73.43
15193;BME280;7697;51.630;7.484;2023-03-22T12:52:45;99984.91;;;15.61;72.95
15193;BME280;7697;51.630;7.484;2023-03-22T12:57:47;99994.91;;;15.70;72.19
15193;BME280;7697;51.630;7.484;2023-03-22T13:02:58;99987.50;;;15.77;69.84
15193;BME280;7697;51.630;7.484;2023-03-22T13:08:02;99998.00;;;15.62;69.88
15193;BME280;7697;51.630;7.484;2023-03-22T13:13:10;99995.75;;;15.54;69.64
15193;BME280;7697;51.630;7.484;2023-03-22T13:19:01;100018.56;;;15.45;71.12
15193;BME280;7697;51.630;7.484;2023-03-22T13:24:19;100018.63;;;15.33;69.99
15193;BME280;7697;51.630;7.484;2023-03-22T13:29:23;100014.59;;;15.31;72.15
15193;BME280;7697;51.630;7.484;2023-03-22T13:34:36;100004.47;;;15.33;72.09
15193;BME280;7697;51.630;7.484;2023-03-22T13:39:40;100012.25;;;15.34;71.31
15193;BME280;7697;51.630;7.484;2023-03-22T13:44:51;100010.88;;;15.32;71.23
15193;BME280;7697;51.630;7.484;2023-03-22T13:49:59;100011.69;;;15.32;69.76
15193;BME280;7697;51.630;7.484;2023-03-22T13:55:14;100008.13;;;15.27;70.59
15193;BME280;7697;51.630;7.484;2023-03-22T14:00:32;100010.88;;;15.32;70.20
15193;BME280;7697;51.630;7.484;2023-03-22T14:05:35;99999.72;;;15.35;68.91
15193;BME280;7697;51.630;7.484;2023-03-22T14:10:42;99973.09;;;15.40;68.57
15193;BME280;7697;51.630;7.484;2023-03-22T14:15:48;99965.09;;;15.57;68.81
15193;BME280;7697;51.630;7.484;2023-03-22T14:20:53;99958.81;;;15.68;68.39
15193;BME280;7697;51.630;7.484;2023-03-22T14:26:05;99961.31;;;15.74;66.69
15193;BME280;7697;51.630;7.484;2023-03-22T14:31:23;99945.66;;;15.61;67.45
15193;BME280;7697;51.630;7.484;2023-03-22T14:36:27;99951.00;;;15.61;67.92
15193;BME280;7697;51.630;7.484;2023-03-22T14:41:32;99962.44;;;15.57;68.02
15193;BME280;7697;51.630;7.484;2023-03-22T14:46:36;99961.06;;;15.54;67.90
15193;BME280;7697;51.630;7.484;2023-03-22T14:51:40;99967.03;;;15.45;68.59
15193;BME280;7697;51.630;7.484;2023-03-22T14:56:45;99962.41;;;15.40;69.55
15193;BME280;7697;51.630;7.484;2023-03-22T15:01:49;99964.13;;;15.46;69.60
15193;BME280;7697;51.630;7.484;2023-03-22T15:06:54;99948.59;;;15.43;70.00
15193;BME280;7697;51.630;7.484;2023-03-22T15:12:00;99971.81;;;15.43;69.98
15193;BME280;7697;51.630;7.484;2023-03-22T15:17:04;99963.97;;;15.36;69.92
15193;BME280;7697;51.630;7.484;2023-03-22T15:22:11;99960.13;;;15.27;70.65
15193;BME280;7697;51.630;7.484;2023-03-22T15:27:16;99959.47;;;15.20;71.61
15193;BME280;7697;51.630;7.484;2023-03-22T15:32:21;99970.97;;;15.20;72.09
15193;BME280;7697;51.630;7.484;2023-03-22T15:37:27;99963.69;;;15.16;72.28
15193;BME280;7697;51.630;7.484;2023-03-22T15:42:33;99960.94;;;15.11;71.99
15193;BME280;7697;51.630;7.484;2023-03-22T15:47:43;99950.75;;;15.08;72.78
15193;BME280;7697;51.630;7.484;2023-03-22T15:52:50;99948.03;;;15.02;73.04
15193;BME280;7697;51.630;7.484;2023-03-22T15:57:54;99941.94;;;15.07;73.09
15193;BME280;7697;51.630;7.484;2023-03-22T16:02:58;99934.69;;;15.02;73.31
15193;BME280;7697;51.630;7.484;2023-03-22T16:08:01;99944.22;;;14.98;74.04
15193;BME280;7697;51.630;7.484;2023-03-22T16:13:16;99928.69;;;14.95;73.78
15193;BME280;7697;51.630;7.484;2023-03-22T16:18:20;99932.16;;;14.96;74.39
15193;BME280;7697;51.630;7.484;2023-03-22T16:23:22;99930.47;;;14.90;74.34
15193;BME280;7697;51.630;7.484;2023-03-22T16:28:26;99940.91;;;14.91;74.25
15193;BME280;7697;51.630;7.484;2023-03-22T16:33:28;99934.78;;;14.91;74.34
15193;BME280;7697;51.630;7.484;2023-03-22T16:38:30;99944.06;;;14.88;74.71
15193;BME280;7697;51.630;7.484;2023-03-22T16:43:33;99940.56;;;14.88;74.70
15193;BME280;7697;51.630;7.484;2023-03-22T16:48:35;99934.44;;;14.87;74.79
15193;BME280;7697;51.630;7.484;2023-03-22T16:53:37;99934.13;;;14.84;74.52
15193;BME280;7697;51.630;7.484;2023-03-22T16:58:41;99939.78;;;14.87;74.32
15193;BME280;7697;51.630;7.484;2023-03-22T17:03:43;99944.06;;;14.88;74.53
15193;BME280;7697;51.630;7.484;2023-03-22T17:08:45;99928.06;;;14.88;74.60
15193;BME280;7697;51.630;7.484;2023-03-22T17:13:49;99899.47;;;14.84;73.98
15193;BME280;7697;51.630;7.484;2023-03-22T17:18:51;99916.28;;;14.84;73.56
15193;BME280;7697;51.630;7.484;2023-03-22T17:23:55;99913.91;;;14.88;74.45
15193;BME280;7697;51.630;7.484;2023-03-22T17:28:58;99913.63;;;14.84;74.11
15193;BME280;7697;51.630;7.484;2023-03-22T17:34:00;99917.38;;;14.88;74.82
15193;BME280;7697;51.630;7.484;2023-03-22T17:39:02;99919.25;;;14.88;74.55
15193;BME280;7697;51.630;7.484;2023-03-22T17:44:08;99914.91;;;14.82;74.49
15193;BME280;7697;51.630;7.484;2023-03-22T17:49:10;99922.41;;;14.85;74.21
15193;BME280;7697;51.630;7.484;2023-03-22T17:54:11;99914.31;;;14.80;74.38
15193;BME280;7697;51.630;7.484;2023-03-22T17:59:15;99913.84;;;14.83;74.43
15193;BME280;7697;51.630;7.484;2023-03-22T18:04:16;99910.13;;;14.84;74.40
15193;BME280;7697;51.630;7.484;2023-03-22T18:09:18;99915.47;;;14.84;74.22
15193;BME280;7697;51.630;7.484;2023-03-22T18:14:22;99911.66;;;14.80;74.49
15193;BME280;7697;51.630;7.484;2023-03-22T18:19:24;99910.38;;;14.82;74.46
15193;BME280;7697;51.630;7.484;2023-03-22T18:24:28;99911.50;;;14.86;74.64
15193;BME280;7697;51.630;7.484;2023-03-22T18:29:32;99904.00;;;14.83;74.72
15193;BME280;7697;51.630;7.484;2023-03-22T18:34:33;99909.88;;;14.85;74.98
15193;BME280;7697;51.630;7.484;2023-03-22T18:39:35;99899.72;;;14.82;75.52
15193;BME280;7697;51.630;7.484;2023-03-22T18:44:39;99909.31;;;14.83;75.59
15193;BME280;7697;51.630;7.484;2023-03-22T18:49:41;99911.19;;;14.83;75.79
15193;BME280;7697;51.630;7.484;2023-03-22T18:54:43;99918.13;;;14.84;75.85
15193;BME280;7697;51.630;7.484;2023-03-22T18:59:46;99901.22;;;14.78;76.53
15193;BME280;7697;51.630;7.484;2023-03-22T19:04:48;99896.72;;;14.79;76.53
15193;BME280;7697;51.630;7.484;2023-03-22T19:09:49;99862.22;;;14.72;77.13
15193;BME280;7697;51.630;7.484;2023-03-22T19:14:53;99872.41;;;14.75;76.28
15193;BME280;7697;51.630;7.484;2023-03-22T19:19:55;99890.09;;;14.81;76.67
15193;BME280;7697;51.630;7.484;2023-03-22T19:24:57;99876.19;;;14.79;76.91
15193;BME280;7697;51.630;7.484;2023-03-22T19:30:00;99862.06;;;14.79;77.14
15193;BME280;7697;51.630;7.484;2023-03-22T19:35:03;99858.28;;;14.75;77.25
15193;BME280;7697;51.630;7.484;2023-03-22T19:40:06;99848.16;;;14.77;77.16
15193;BME280;7697;51.630;7.484;2023-03-22T19:45:10;99830.81;;;14.74;77.14
15193;BME280;7697;51.630;7.484;2023-03-22T19:50:12;99849.06;;;14.82;76.94
15193;BME280;7697;51.630;7.484;2023-03-22T19:55:14;99857.06;;;14.82;76.99
15193;BME280;7697;51.630;7.484;2023-03-22T20:00:19;99851.09;;;14.75;77.78
15193;BME280;7697;51.630;7.484;2023-03-22T20:05:22;99835.91;;;14.76;77.86
15193;BME280;7697;51.630;7.484;2023-03-22T20:10:24;99816.09;;;14.72;77.98
15193;BME280;7697;51.630;7.484;2023-03-22T20:15:27;99824.44;;;14.75;78.42
15193;BME280;7697;51.630;7.484;2023-03-22T20:20:29;99809.91;;;14.66;79.35
15193;BME280;7697;51.630;7.484;2023-03-22T20:25:30;99813.47;;;14.55;80.47
15193;BME280;7697;51.630;7.484;2023-03-22T20:30:34;99812.34;;;14.51;81.05
15193;BME280;7697;51.630;7.484;2023-03-22T20:35:35;99803.13;;;14.42;81.33
15193;BME280;7697;51.630;7.484;2023-03-22T20:40:39;99809.50;;;14.41;81.64
15193;BME280;7697;51.630;7.484;2023-03-22T20:45:42;99815.50;;;14.48;81.37
15193;BME280;7697;51.630;7.484;2023-03-22T20:50:48;99807.19;;;14.44;81.48
15193;BME280;7697;51.630;7.484;2023-03-22T20:55:51;99817.13;;;14.49;81.19
15193;BME280;7697;51.630;7.484;2023-03-22T21:00:55;99789.34;;;14.45;81.23
15193;BME280;7697;51.630;7.484;2023-03-22T21:06:03;99781.66;;;14.48;81.08
15193;BME280;7697;51.630;7.484;2023-03-22T21:11:06;99784.88;;;14.50;80.81
15193;BME280;7697;51.630;7.484;2023-03-22T21:16:11;99776.50;;;14.42;81.48
15193;BME280;7697;51.630;7.484;2023-03-22T21:21:13;99780.78;;;14.43;81.84
15193;BME280;7697;51.630;7.484;2023-03-22T21:26:15;99777.00;;;14.39;82.08
15193;BME280;7697;51.630;7.484;2023-03-22T21:31:18;99765.16;;;14.35;82.78
15193;BME280;7697;51.630;7.484;2023-03-22T21:36:20;99790.19;;;14.34;83.89
15193;BME280;7697;51.630;7.484;2023-03-22T21:41:24;99781.63;;;14.32;84.52
15193;BME280;7697;51.630;7.484;2023-03-22T21:46:28;99781.81;;;14.25;85.31
15193;BME280;7697;51.630;7.484;2023-03-22T21:51:30;99782.13;;;14.28;85.56
15193;BME280;7697;51.630;7.484;2023-03-22T21:56:32;99779.47;;;14.28;86.03
15193;BME280;7697;51.630;7.484;2023-03-22T22:01:35;99777.22;;;14.20;86.11
15193;BME280;7697;51.630;7.484;2023-03-22T22:06:38;99778.25;;;14.19;86.88
15193;BME280;7697;51.630;7.484;2023-03-22T22:11:39;99775.50;;;14.14;87.43
15193;BME280;7697;51.630;7.484;2023-03-22T22:16:43;99770.03;;;14.04;88.60
15193;BME280;7697;51.630;7.484;2023-03-22T22:21:45;99749.03;;;13.91;88.97
15193;BME280;7697;51.630;7.484;2023-03-22T22:26:47;99756.97;;;13.86;89.50
15193;BME280;7697;51.630;7.484;2023-03-22T22:31:50;99761.06;;;13.77;89.92
15193;BME280;7697;51.630;7.484;2023-03-22T22:36:52;99768.53;;;13.80;91.26
15193;BME280;7697;51.630;7.484;2023-03-22T22:41:54;99758.88;;;13.74;91.27
15193;BME280;7697;51.630;7.484;2023-03-22T22:46:57;99748.03;;;13.64;91.23
15193;BME280;7697;51.630;7.484;2023-03-22T22:51:59;99742.56;;;13.70;91.53
15193;BME280;7697;51.630;7.484;2023-03-22T22:57:01;99736.81;;;13.62;92.68
15193;BME280;7697;51.630;7.484;2023-03-22T23:02:06;99749.50;;;13.71;92.65
15193;BME280;7697;51.630;7.484;2023-03-22T23:07:08;99743.88;;;13.68;92.39
15193;BME280;7697;51.630;7.484;2023-03-22T23:12:10;99748.16;;;13.69;93.23
15193;BME280;7697;51.630;7.484;2023-03-22T23:17:13;99761.34;;;13.64;93.77
15193;BME280;7697;51.630;7.484;2023-03-22T23:22:18;99746.75;;;13.49;94.16
15193;BME280;7697;51.630;7.484;2023-03-22T23:27:22;99749.72;;;13.53;95.11
15193;BME280;7697;51.630;7.484;2023-03-22T23:32:27;99733.72;;;13.36;95.91
15193;BME280;7697;51.630;7.484;2023-03-22T23:37:30;99735.13;;;13.27;97.28
15193;BME280;7697;51.630;7.484;2023-03-22T23:42:32;99719.34;;;13.21;97.17
15193;BME280;7697;51.630;7.484;2023-03-22T23:47:36;99722.22;;;13.19;98.05
15193;BME280;7697;51.630;7.484;2023-03-22T23:52:38;99718.75;;;13.07;98.17
15193;BME280;7697;51.630;7.484;2023-03-22T23:57:40;99718.69;;;13.02;99.19
